Time;durP1;ratioP1;P1;durP2;ratioP2;P2;SDS_P1;SDS_P2;PMS_P1;PMS_P2;Temp;Humidity;BMP_temperature;BMP_pressure;BME280_temperature;BME280_humidity;BME280_pressure;Samples;Min_cycle;Max_cycle;Signal;HPM_P1;HPM_P2
2020/12/24 00:00:42;;;;;;;2.33;0.80;;;;;;;8.04;95.93;96488.97;4998776;28;20092;-69
2020/12/24 00:03:07;;;;;;;1.33;0.70;;;;;;;7.97;95.57;96488.00;4997947;28;20062;-69
2020/12/24 00:05:33;;;;;;;3.92;0.95;;;;;;;7.95;95.75;96490.31;4998438;28;20641;-69
2020/12/24 00:07:59;;;;;;;0.95;0.50;;;;;;;7.89;96.09;96492.53;5002514;28;20061;-69
2020/12/24 00:10:24;;;;;;;0.85;0.60;;;;;;;7.84;95.47;96490.06;4995824;28;20096;-69
2020/12/24 00:12:50;;;;;;;1.55;0.57;;;;;;;7.80;95.57;96491.91;5001128;28;20395;-69
2020/12/24 00:15:16;;;;;;;1.85;0.63;;;;;;;7.80;95.35;96479.06;4995416;28;20041;-69
2020/12/24 00:17:41;;;;;;;0.60;0.50;;;;;;;7.91;95.40;96481.25;5001919;28;20046;-68
2020/12/24 00:20:07;;;;;;;1.08;0.57;;;;;;;7.98;95.23;96481.44;4995965;28;20115;-69
2020/12/24 00:22:32;;;;;;;0.50;0.50;;;;;;;7.94;95.35;96483.25;5000521;28;20396;-69
2020/12/24 00:24:58;;;;;;;1.15;0.60;;;;;;;7.92;94.68;96480.09;5000692;28;20559;-69
2020/12/24 00:27:24;;;;;;;2.33;0.50;;;;;;;7.94;94.75;96473.16;4996281;28;20612;-70
2020/12/24 00:29:49;;;;;;;0.98;0.60;;;;;;;7.90;94.81;96471.50;4999061;28;20081;-69
2020/12/24 00:32:15;;;;;;;0.57;0.50;;;;;;;7.89;94.40;96470.72;4987702;28;20045;-68
2020/12/24 00:34:40;;;;;;;0.55;0.55;;;;;;;7.84;94.84;96460.84;5017011;28;20080;-69
2020/12/24 00:37:06;;;;;;;0.98;0.50;;;;;;;7.87;95.07;96444.91;4992663;28;20045;-69
2020/12/24 00:39:31;;;;;;;1.20;0.60;;;;;;;7.79;94.95;96454.88;5001728;28;20034;-70
2020/12/24 00:41:57;;;;;;;1.05;0.70;;;;;;;7.80;94.02;96459.19;5000014;28;20124;-67
2020/12/24 00:44:23;;;;;;;1.10;0.70;;;;;;;7.74;94.33;96450.50;4993735;28;20116;-67
2020/12/24 00:46:48;;;;;;;1.98;0.60;;;;;;;7.74;94.61;96461.41;5002790;28;20136;-70
2020/12/24 00:49:15;;;;;;;1.85;0.80;;;;;;;7.69;94.49;96453.50;4993775;28;20137;-68
2020/12/24 00:51:40;;;;;;;0.90;0.70;;;;;;;7.64;94.75;96457.28;5001596;28;20040;-69
2020/12/24 00:54:06;;;;;;;1.95;0.60;;;;;;;7.64;94.88;96465.44;4993035;28;20050;-68
2020/12/24 00:56:31;;;;;;;0.85;0.70;;;;;;;7.66;95.30;96459.66;5000511;28;20131;-69
2020/12/24 00:58:56;;;;;;;1.75;0.80;;;;;;;7.62;95.03;96459.56;4988502;28;20096;-69
2020/12/24 01:01:22;;;;;;;0.80;0.70;;;;;;;7.73;93.78;96453.59;4995753;28;20581;-69
2020/12/24 01:03:47;;;;;;;0.95;0.60;;;;;;;7.69;94.61;96466.31;5015399;28;20037;-69
2020/12/24 01:06:13;;;;;;;0.63;0.60;;;;;;;7.78;93.64;96465.00;4996454;28;20175;-68
2020/12/24 01:08:38;;;;;;;1.15;0.80;;;;;;;7.74;94.31;96468.78;4999995;28;20041;-69
2020/12/24 01:11:04;;;;;;;1.08;0.70;;;;;;;7.70;93.56;96470.63;4995443;28;20048;-68
2020/12/24 01:13:29;;;;;;;1.63;0.70;;;;;;;7.63;94.12;96472.06;4995414;28;20050;-68
2020/12/24 01:15:54;;;;;;;1.00;0.70;;;;;;;7.60;94.65;96493.78;4999397;28;20500;-70
2020/12/24 01:18:20;;;;;;;2.35;1.67;;;;;;;7.64;94.13;96495.44;4995802;28;20507;-70
2020/12/24 01:20:45;;;;;;;3.72;0.80;;;;;;;7.56;94.72;96490.16;5001170;28;20049;-70
2020/12/24 01:23:11;;;;;;;1.80;0.63;;;;;;;7.64;93.95;96486.47;4996114;28;20525;-68
2020/12/24 01:25:36;;;;;;;0.90;0.75;;;;;;;7.60;94.21;96488.34;5000406;28;20545;-69
2020/12/24 01:28:02;;;;;;;1.50;0.70;;;;;;;7.53;93.88;96491.66;4996480;28;20045;-70
2020/12/24 01:30:28;;;;;;;0.90;0.63;;;;;;;7.43;95.18;96495.69;4997168;28;20065;-69
2020/12/24 01:32:53;;;;;;;0.88;0.60;;;;;;;7.44;94.66;96488.31;5003338;28;20069;-69
2020/12/24 01:35:19;;;;;;;2.75;0.60;;;;;;;7.47;95.00;96493.06;4995638;28;20050;-72
2020/12/24 01:37:44;;;;;;;2.00;0.85;;;;;;;7.44;95.14;96486.38;4999687;28;20172;-69
2020/12/24 01:40:10;;;;;;;0.70;0.60;;;;;;;7.47;94.19;96493.88;4998282;28;20049;-68
2020/12/24 01:42:35;;;;;;;1.30;0.70;;;;;;;7.46;94.50;96477.84;5015306;28;20045;-70
2020/12/24 01:45:03;;;;;;;4.63;1.33;;;;;;;7.44;95.17;96489.09;5014772;28;20068;-69
2020/12/24 01:47:28;;;;;;;1.17;0.80;;;;;;;7.45;94.06;96479.00;4985137;28;20677;-70
2020/12/24 01:49:53;;;;;;;1.15;0.70;;;;;;;7.40;94.88;96477.34;4995780;28;20057;-69
2020/12/24 01:52:32;;;;;;;0.95;0.60;;;;;;;7.40;94.23;96469.16;4994490;28;20046;-69
2020/12/24 01:54:58;;;;;;;0.80;0.80;;;;;;;7.35;94.40;96466.69;5006946;28;20053;-69
2020/12/24 01:57:24;;;;;;;1.85;0.68;;;;;;;7.41;94.10;96480.84;4996452;28;20049;-68
2020/12/24 01:59:49;;;;;;;0.90;0.60;;;;;;;7.39;94.41;96473.00;4998427;28;20052;-69
2020/12/24 02:02:15;;;;;;;0.60;0.50;;;;;;;7.35;94.66;96476.81;4995192;28;20137;-69
2020/12/24 02:04:40;;;;;;;10.05;0.80;;;;;;;7.36;94.79;96481.88;4999207;28;20041;-70
2020/12/24 02:07:06;;;;;;;0.70;0.60;;;;;;;7.29;94.20;96487.16;4995085;28;20046;-68
2020/12/24 02:09:31;;;;;;;1.35;0.73;;;;;;;7.23;94.28;96496.72;4996525;28;20053;-68
2020/12/24 02:11:58;;;;;;;4.22;0.68;;;;;;;7.19;94.65;96498.59;4999689;28;20727;-69
2020/12/24 02:14:24;;;;;;;2.60;1.00;;;;;;;7.17;94.66;96495.41;4991318;28;20633;-69
2020/12/24 02:16:49;;;;;;;0.60;0.60;;;;;;;7.05;94.80;96509.88;4999509;28;20549;-70
2020/12/24 02:19:15;;;;;;;1.67;0.70;;;;;;;6.99;94.63;96501.19;4994818;28;20057;-70
2020/12/24 02:21:40;;;;;;;3.83;0.80;;;;;;;6.98;94.49;96494.13;4999262;28;20042;-70
2020/12/24 02:24:06;;;;;;;0.85;0.50;;;;;;;6.91;94.84;96498.59;4989461;28;20042;-70
2020/12/24 02:26:31;;;;;;;1.98;1.02;;;;;;;6.94;95.05;96497.91;4997820;28;20042;-70
2020/12/24 02:28:57;;;;;;;2.55;0.90;;;;;;;6.89;94.82;96491.56;4999002;28;20033;-69
2020/12/24 02:31:23;;;;;;;1.92;0.52;;;;;;;6.84;94.63;96496.47;4992563;28;20119;-69
2020/12/24 02:33:49;;;;;;;1.85;0.80;;;;;;;6.84;95.33;96497.28;5003544;28;20403;-70
2020/12/24 02:36:15;;;;;;;1.55;0.80;;;;;;;6.77;95.06;96501.72;5004411;28;20504;-69
2020/12/24 02:38:41;;;;;;;2.67;0.70;;;;;;;6.72;95.05;96501.97;5002710;28;20045;-69
2020/12/24 02:41:07;;;;;;;3.85;0.93;;;;;;;6.67;94.26;96492.91;4994582;28;20495;-69
2020/12/24 02:43:32;;;;;;;0.60;0.60;;;;;;;6.65;93.54;96497.91;4999537;28;20119;-69
2020/12/24 02:45:58;;;;;;;1.17;0.70;;;;;;;6.58;94.07;96508.59;4998585;28;20041;-69
2020/12/24 02:48:23;;;;;;;0.65;0.65;;;;;;;6.59;94.87;96517.53;4992843;28;20520;-69
2020/12/24 02:50:49;;;;;;;2.13;0.70;;;;;;;6.49;94.08;96524.25;4992447;28;20050;-69
2020/12/24 02:53:14;;;;;;;2.95;0.60;;;;;;;6.53;92.82;96527.09;4993340;28;20101;-70
2020/12/24 02:55:40;;;;;;;0.75;0.50;;;;;;;6.47;91.76;96529.25;4997990;28;20072;-68
2020/12/24 02:58:05;;;;;;;1.45;0.50;;;;;;;6.45;90.73;96521.44;4994077;28;20064;-67
2020/12/24 03:00:31;;;;;;;1.08;0.55;;;;;;;6.40;91.82;96515.44;4999254;28;20097;-70
2020/12/24 03:02:57;;;;;;;1.30;0.50;;;;;;;6.35;91.80;96516.47;5008667;28;20041;-70
2020/12/24 03:05:22;;;;;;;1.02;0.60;;;;;;;6.28;92.74;96514.34;5009760;28;20137;-68
2020/12/24 03:07:51;;;;;;;0.60;0.60;;;;;;;6.27;92.12;96520.13;4999959;28;20053;-70
2020/12/24 03:10:18;;;;;;;0.75;0.50;;;;;;;6.25;91.13;96517.75;4994172;28;20050;-69
2020/12/24 03:12:43;;;;;;;1.77;0.73;;;;;;;6.15;91.61;96531.81;4997985;28;20391;-70
2020/12/24 03:15:11;;;;;;;0.50;0.50;;;;;;;6.12;91.36;96535.19;5000229;28;20053;-68
2020/12/24 03:17:37;;;;;;;1.15;0.60;;;;;;;6.11;89.79;96531.69;5019059;28;20057;-70
2020/12/24 03:20:03;;;;;;;0.95;0.60;;;;;;;6.11;90.89;96531.69;5015427;28;20052;-69
2020/12/24 03:22:29;;;;;;;1.95;0.50;;;;;;;6.04;90.81;96539.63;5016449;28;20037;-69
2020/12/24 03:24:54;;;;;;;2.15;0.65;;;;;;;6.00;90.75;96546.09;5019806;28;20038;-71
2020/12/24 03:27:20;;;;;;;3.20;0.60;;;;;;;5.88;90.83;96544.91;5011938;28;20079;-70
2020/12/24 03:29:45;;;;;;;2.03;0.70;;;;;;;5.76;90.20;96547.63;5017619;28;20033;-71
2020/12/24 03:32:10;;;;;;;0.68;0.50;;;;;;;5.67;91.19;96531.47;5002630;28;20156;-70
2020/12/24 03:34:36;;;;;;;1.95;0.70;;;;;;;5.44;89.78;96541.94;4994502;28;20045;-69
2020/12/24 03:37:01;;;;;;;3.40;0.73;;;;;;;5.30;90.42;96530.59;4999068;28;20465;-69
2020/12/24 03:39:27;;;;;;;0.68;0.60;;;;;;;5.25;91.18;96538.97;4998610;28;20502;-68
2020/12/24 03:41:53;;;;;;;0.80;0.70;;;;;;;5.23;90.10;96533.84;5003100;28;20046;-70
2020/12/24 03:44:18;;;;;;;0.70;0.70;;;;;;;5.14;90.65;96542.09;5003274;28;20060;-70
2020/12/24 03:46:44;;;;;;;2.38;0.60;;;;;;;5.11;90.51;96541.97;5004374;28;20390;-69
2020/12/24 03:49:09;;;;;;;2.53;0.60;;;;;;;5.15;89.13;96532.81;4993770;28;20046;-68
2020/12/24 03:51:35;;;;;;;0.95;0.50;;;;;;;5.13;88.71;96529.66;5007564;28;20045;-69
2020/12/24 03:54:00;;;;;;;1.27;0.75;;;;;;;5.13;88.00;96537.00;5022459;28;20037;-70
2020/12/24 03:56:26;;;;;;;2.53;0.60;;;;;;;5.15;88.15;96543.69;5017093;28;20041;-69
2020/12/24 03:58:51;;;;;;;3.10;0.60;;;;;;;5.17;88.63;96543.34;5021713;28;20449;-69
2020/12/24 04:01:16;;;;;;;2.22;0.73;;;;;;;5.10;89.51;96545.81;5014536;28;20040;-69
2020/12/24 04:03:42;;;;;;;1.00;0.60;;;;;;;5.07;89.49;96549.97;5019739;28;20068;-70
2020/12/24 04:06:07;;;;;;;1.25;0.70;;;;;;;5.14;89.25;96561.09;5016947;28;20547;-70
2020/12/24 04:08:33;;;;;;;1.60;0.70;;;;;;;5.09;90.09;96569.44;5021071;28;20145;-69
2020/12/24 04:10:58;;;;;;;1.75;0.80;;;;;;;5.03;90.76;96556.44;5022804;28;20140;-70
2020/12/24 04:13:24;;;;;;;0.60;0.57;;;;;;;5.03;91.09;96549.06;5017944;28;20049;-68
2020/12/24 04:15:49;;;;;;;0.95;0.50;;;;;;;5.08;91.31;96557.00;5004625;28;20571;-69
2020/12/24 04:18:15;;;;;;;0.98;0.80;;;;;;;5.06;90.87;96542.97;4994926;28;20196;-70
2020/12/24 04:20:40;;;;;;;1.80;0.80;;;;;;;5.00;91.39;96546.22;5001456;28;20089;-69
2020/12/24 04:23:06;;;;;;;0.60;0.60;;;;;;;5.02;90.75;96546.69;4997103;28;20699;-70
2020/12/24 04:25:31;;;;;;;0.93;0.65;;;;;;;4.99;90.50;96537.31;5002903;28;20045;-68
2020/12/24 04:27:57;;;;;;;8.07;0.80;;;;;;;4.97;90.29;96539.56;5001276;28;20061;-68
2020/12/24 04:30:22;;;;;;;1.58;0.77;;;;;;;5.03;90.12;96542.84;4996398;28;20568;-68
2020/12/24 04:32:48;;;;;;;1.02;0.80;;;;;;;5.03;90.21;96532.00;5001921;28;20087;-70
2020/12/24 04:35:13;;;;;;;2.42;0.70;;;;;;;5.05;88.92;96522.38;4996817;28;20527;-70
2020/12/24 04:37:38;;;;;;;4.05;0.77;;;;;;;5.04;89.40;96501.81;5018234;28;20046;-70
2020/12/24 04:40:04;;;;;;;4.10;0.77;;;;;;;5.00;89.69;96514.44;4994546;28;20038;-69
2020/12/24 04:42:31;;;;;;;8.77;1.00;;;;;;;5.07;90.11;96490.25;5001933;28;20128;-71
2020/12/24 04:44:59;;;;;;;1.13;0.80;;;;;;;5.04;90.07;96480.09;4997518;28;20041;-70
2020/12/24 04:47:25;;;;;;;3.38;0.80;;;;;;;5.08;88.97;96475.56;4997065;28;20092;-69
2020/12/24 04:49:51;;;;;;;0.55;0.55;;;;;;;5.13;89.15;96479.97;4999246;28;20042;-69
2020/12/24 04:52:17;;;;;;;4.88;0.82;;;;;;;5.16;88.98;96479.31;4994310;28;20164;-69
2020/12/24 04:54:42;;;;;;;6.53;0.70;;;;;;;5.09;90.29;96476.34;4996805;28;20038;-70
2020/12/24 04:57:10;;;;;;;3.30;0.80;;;;;;;5.11;90.40;96484.94;4994670;28;20124;-69
2020/12/24 04:59:37;;;;;;;1.75;0.50;;;;;;;5.16;89.04;96479.31;4999988;28;20073;-68
2020/12/24 05:02:04;;;;;;;0.65;0.50;;;;;;;5.13;89.76;96483.50;4998640;28;20042;-65
2020/12/24 05:04:30;;;;;;;1.63;0.60;;;;;;;5.20;89.74;96490.28;4999720;28;20132;-68
2020/12/24 05:07:07;;;;;;;2.13;0.63;;;;;;;5.22;89.34;96494.28;5000811;28;20128;-69
2020/12/24 05:09:34;;;;;;;0.93;0.68;;;;;;;5.15;90.71;96496.75;4997754;28;20049;-67
2020/12/24 05:12:00;;;;;;;2.20;0.60;;;;;;;5.20;90.48;96496.50;4998850;28;20048;-67
2020/12/24 05:14:28;;;;;;;0.50;0.50;;;;;;;5.24;90.33;96493.91;4994424;28;20046;-66
2020/12/24 05:17:03;;;;;;;1.42;0.60;;;;;;;5.21;91.08;96494.59;4999650;28;20422;-67
2020/12/24 05:19:34;;;;;;;0.50;0.50;;;;;;;5.39;90.27;96473.47;4998062;28;20049;-66
2020/12/24 05:22:32;;;;;;;1.08;0.60;;;;;;;5.32;90.04;96477.53;4998264;28;20085;-68
2020/12/24 05:25:10;;;;;;;1.05;0.60;;;;;;;5.38;90.02;96482.75;4976900;28;20069;-70
2020/12/24 05:27:39;;;;;;;0.60;0.50;;;;;;;5.43;89.49;96469.72;4999150;28;20050;-68
2020/12/24 05:30:05;;;;;;;2.15;0.70;;;;;;;5.42;89.19;96468.16;4994843;28;20049;-70
2020/12/24 05:32:32;;;;;;;1.90;0.65;;;;;;;5.29;90.08;96472.75;4996098;28;20046;-70
2020/12/24 05:35:11;;;;;;;4.57;0.70;;;;;;;5.34;90.42;96482.63;4999617;28;20128;-71
2020/12/24 05:37:37;;;;;;;2.47;0.60;;;;;;;5.22;90.73;96471.75;4997617;28;20037;-71
2020/12/24 05:40:26;;;;;;;1.13;0.70;;;;;;;5.38;90.34;96455.59;4998137;28;20044;-67
2020/12/24 05:43:01;;;;;;;1.17;0.80;;;;;;;5.54;88.22;96462.72;4998090;28;20052;-68
2020/12/24 05:45:29;;;;;;;0.60;0.55;;;;;;;5.55;88.79;96458.88;4996000;28;20073;-68
2020/12/24 05:48:11;;;;;;;0.60;0.60;;;;;;;5.53;88.74;96468.50;5000404;28;20050;-68
2020/12/24 05:50:37;;;;;;;0.50;0.50;;;;;;;5.55;88.33;96461.59;4995801;28;20522;-69
2020/12/24 05:53:21;;;;;;;0.57;0.57;;;;;;;5.57;88.24;96452.31;4996776;28;20053;-66
2020/12/24 05:55:46;;;;;;;0.40;0.40;;;;;;;5.60;86.90;96446.19;4999804;28;20049;-69
2020/12/24 05:58:11;;;;;;;1.15;0.50;;;;;;;5.49;87.62;96440.41;4995488;28;20403;-67
2020/12/24 06:00:42;;;;;;;0.70;0.50;;;;;;;5.48;87.47;96434.19;4999581;28;20136;-66
2020/12/24 06:03:17;;;;;;;2.67;0.80;;;;;;;5.52;86.27;96426.94;4995563;28;20042;-67
2020/12/24 06:05:51;;;;;;;0.80;0.50;;;;;;;5.55;86.05;96437.13;5000643;28;20046;-67
2020/12/24 06:08:19;;;;;;;0.50;0.50;;;;;;;5.51;86.19;96427.28;4988497;28;20045;-69
2020/12/24 06:10:46;;;;;;;0.85;0.60;;;;;;;5.60;85.99;96427.97;5002087;28;20049;-68
2020/12/24 06:13:16;;;;;;;4.32;0.60;;;;;;;5.54;85.34;96413.03;5006793;28;20046;-68
2020/12/24 06:15:47;;;;;;;1.38;0.47;;;;;;;5.49;86.11;96405.09;5004518;28;20045;-65
2020/12/24 06:18:13;;;;;;;0.73;0.60;;;;;;;5.57;85.04;96412.34;5003404;28;20046;-68
2020/12/24 06:20:48;;;;;;;0.52;0.50;;;;;;;5.69;84.21;96415.06;5005670;28;20053;-69
2020/12/24 06:23:15;;;;;;;1.63;0.60;;;;;;;5.82;84.38;96404.97;4983733;28;20507;-66
2020/12/24 06:25:40;;;;;;;0.68;0.50;;;;;;;5.98;82.81;96402.34;4999916;28;20832;-68
2020/12/24 06:28:11;;;;;;;0.50;0.50;;;;;;;5.95;82.96;96394.84;4994700;28;20046;-68
2020/12/24 06:30:37;;;;;;;3.08;0.70;;;;;;;5.87;83.61;96382.97;4999661;28;20053;-69
2020/12/24 06:33:02;;;;;;;0.95;0.50;;;;;;;6.01;82.13;96393.50;4993158;28;20068;-66
2020/12/24 06:35:34;;;;;;;0.60;0.50;;;;;;;6.13;81.35;96387.25;4994385;28;20069;-67
2020/12/24 06:38:00;;;;;;;0.50;0.50;;;;;;;6.11;81.42;96378.63;4998353;28;20444;-68
2020/12/24 06:40:32;;;;;;;0.55;0.55;;;;;;;6.09;82.27;96384.41;4991349;28;20048;-68
2020/12/24 06:42:58;;;;;;;0.98;0.60;;;;;;;6.09;82.29;96368.09;5004936;28;20038;-68
2020/12/24 06:45:23;;;;;;;1.65;0.70;;;;;;;6.01;84.00;96366.31;5013752;28;20042;-66
2020/12/24 06:48:10;;;;;;;1.40;0.50;;;;;;;6.07;82.56;96369.59;5005971;28;20050;-68
2020/12/24 06:50:38;;;;;;;0.70;0.60;;;;;;;6.02;83.68;96372.56;4994996;28;20046;-71
2020/12/24 06:53:23;;;;;;;0.50;0.50;;;;;;;5.89;84.88;96361.69;4994281;28;20100;-66
2020/12/24 06:56:13;;;;;;;0.95;0.50;;;;;;;5.88;84.42;96362.03;4995401;28;20480;-68
2020/12/24 06:58:49;;;;;;;2.50;0.55;;;;;;;5.91;85.29;96359.41;4997675;28;20414;-67
2020/12/24 07:01:22;;;;;;;1.15;0.60;;;;;;;5.68;86.33;96361.84;4984618;28;20042;-68
2020/12/24 07:03:48;;;;;;;0.50;0.50;;;;;;;5.67;85.94;96359.47;4997608;28;20088;-70
2020/12/24 07:06:39;;;;;;;1.27;0.50;;;;;;;5.57;86.74;96359.94;4988147;28;20050;-68
2020/12/24 07:09:05;;;;;;;1.08;0.70;;;;;;;5.52;87.51;96355.53;4993684;28;20755;-68
2020/12/24 07:11:41;;;;;;;2.92;0.73;;;;;;;5.49;88.56;96348.88;4998693;28;20101;-69
2020/12/24 07:14:22;;;;;;;0.45;0.45;;;;;;;5.66;87.88;96341.59;4995207;28;20045;-68
2020/12/24 07:16:48;;;;;;;0.50;0.50;;;;;;;5.75;87.00;96331.38;5002089;28;20045;-69
2020/12/24 07:19:16;;;;;;;0.57;0.50;;;;;;;5.73;86.81;96322.78;4989065;28;20095;-67
2020/12/24 07:21:50;;;;;;;2.20;0.60;;;;;;;5.71;87.45;96317.69;5011767;28;20050;-69
2020/12/24 07:24:25;;;;;;;1.33;0.60;;;;;;;5.71;86.70;96319.63;4991258;28;20041;-68
2020/12/24 07:26:58;;;;;;;1.20;0.70;;;;;;;5.92;85.14;96324.84;5004490;28;20038;-69
2020/12/24 07:29:24;;;;;;;2.25;0.60;;;;;;;5.88;85.67;96332.13;4998524;28;20068;-66
2020/12/24 07:31:54;;;;;;;5.55;1.08;;;;;;;5.86;84.97;96329.75;5002159;28;20136;-68
2020/12/24 07:34:31;;;;;;;2.55;0.80;;;;;;;5.71;86.62;96330.50;4996549;28;20116;-65
2020/12/24 07:36:57;;;;;;;1.50;0.60;;;;;;;5.81;85.98;96335.41;5002523;28;20121;-69
2020/12/24 07:39:22;;;;;;;2.25;0.75;;;;;;;5.70;86.51;96332.38;4994524;28;20649;-68
2020/12/24 07:41:48;;;;;;;1.13;0.80;;;;;;;5.49;88.11;96343.44;5002305;28;20041;-68
2020/12/24 07:44:19;;;;;;;2.60;0.60;;;;;;;5.45;88.30;96349.88;4995832;28;20038;-67
2020/12/24 07:46:51;;;;;;;1.42;0.60;;;;;;;5.44;88.20;96349.09;4999827;28;20164;-67
2020/12/24 07:49:20;;;;;;;1.27;0.90;;;;;;;5.52;88.19;96339.22;4991951;28;20049;-68
2020/12/24 07:51:58;;;;;;;3.08;1.73;;;;;;;5.55;87.61;96330.41;5016001;28;20057;-68
2020/12/24 07:54:25;;;;;;;1.33;0.73;;;;;;;5.49;87.28;96335.28;4994409;28;20475;-69
2020/12/24 07:56:52;;;;;;;1.13;0.70;;;;;;;5.53;86.97;96344.31;4997881;28;20128;-68
2020/12/24 07:59:18;;;;;;;2.30;0.60;;;;;;;5.60;86.56;96335.59;4983958;28;20201;-66
2020/12/24 08:01:43;;;;;;;2.00;0.55;;;;;;;5.58;87.21;96339.78;5001480;28;20546;-69
2020/12/24 08:04:09;;;;;;;0.98;0.70;;;;;;;5.62;86.94;96327.91;4991747;28;20056;-66
2020/12/24 08:06:36;;;;;;;0.60;0.60;;;;;;;5.68;86.18;96340.09;5000994;28;20518;-67
2020/12/24 08:09:11;;;;;;;0.60;0.60;;;;;;;5.67;86.21;96337.72;5000569;28;20522;-68
2020/12/24 08:11:38;;;;;;;1.95;0.60;;;;;;;5.64;87.11;96320.19;5000479;28;20054;-67
2020/12/24 08:14:03;;;;;;;0.98;0.70;;;;;;;5.57;87.06;96317.25;4998255;28;20406;-64
2020/12/24 08:16:31;;;;;;;4.65;0.90;;;;;;;5.57;87.26;96311.84;5015030;28;20065;-67
2020/12/24 08:19:02;;;;;;;14.38;5.97;;;;;;;5.61;86.97;96320.09;5000934;28;20046;-68
2020/12/24 08:21:42;;;;;;;2.13;1.45;;;;;;;5.57;87.26;96314.56;4997634;28;20050;-67
2020/12/24 08:24:10;;;;;;;2.00;1.67;;;;;;;5.55;87.42;96317.59;4990499;28;20081;-65
2020/12/24 08:26:36;;;;;;;2.47;1.17;;;;;;;5.53;87.68;96314.44;5003889;28;20801;-69
2020/12/24 08:29:06;;;;;;;7.03;2.75;;;;;;;5.53;87.53;96313.66;4991732;28;20050;-65
2020/12/24 08:31:32;;;;;;;3.10;1.67;;;;;;;5.58;87.80;96324.25;5001218;28;20518;-67
2020/12/24 08:33:58;;;;;;;2.03;1.25;;;;;;;5.63;86.73;96321.31;4999775;28;20060;-67
2020/12/24 08:36:26;;;;;;;1.50;1.13;;;;;;;5.69;86.09;96321.88;4993055;28;20752;-67
2020/12/24 08:39:04;;;;;;;1.33;1.00;;;;;;;5.84;85.18;96326.59;5001046;28;20141;-67
2020/12/24 08:41:33;;;;;;;1.02;0.88;;;;;;;5.86;84.40;96326.25;5001469;28;20040;-68
2020/12/24 08:44:02;;;;;;;1.48;1.00;;;;;;;5.98;84.40;96325.44;4998380;28;20042;-66
2020/12/24 08:46:28;;;;;;;2.10;1.02;;;;;;;6.01;84.75;96336.41;4996642;28;20070;-68
2020/12/24 08:48:53;;;;;;;1.50;0.90;;;;;;;6.04;83.68;96335.72;5000239;28;20084;-68
2020/12/24 08:51:19;;;;;;;1.48;1.10;;;;;;;6.24;82.48;96327.72;4994547;28;20070;-66
2020/12/24 08:53:45;;;;;;;2.63;1.17;;;;;;;6.40;81.85;96330.47;5000899;28;20399;-68
2020/12/24 08:56:18;;;;;;;2.35;1.02;;;;;;;6.37;82.24;96331.16;4996374;28;20042;-68
2020/12/24 08:58:53;;;;;;;1.58;0.80;;;;;;;6.47;81.83;96323.28;5000017;28;20049;-68
2020/12/24 09:01:21;;;;;;;0.93;0.70;;;;;;;6.61;81.14;96314.69;4987552;28;20046;-69
2020/12/24 09:03:47;;;;;;;3.47;1.13;;;;;;;6.53;81.02;96317.59;4998395;28;20511;-68
2020/12/24 09:06:14;;;;;;;1.55;0.70;;;;;;;6.61;81.52;96306.53;4994391;28;20586;-67
2020/12/24 09:08:40;;;;;;;0.73;0.65;;;;;;;6.68;80.46;96314.06;5000964;28;20100;-67
2020/12/24 09:11:24;;;;;;;1.15;0.77;;;;;;;6.86;80.21;96328.94;4994787;28;20555;-68
2020/12/24 09:14:04;;;;;;;0.93;0.70;;;;;;;7.04;79.89;96314.94;5000866;28;20503;-67
2020/12/24 09:16:31;;;;;;;0.50;0.50;;;;;;;7.25;79.87;96309.22;4995652;28;20074;-66
2020/12/24 09:19:05;;;;;;;2.28;1.20;;;;;;;7.39;78.37;96314.97;5001103;28;20072;-68
2020/12/24 09:21:32;;;;;;;1.52;0.95;;;;;;;7.66;77.87;96320.63;5000253;28;20045;-68
2020/12/24 09:24:08;;;;;;;0.98;0.88;;;;;;;7.79;77.31;96307.66;4999450;28;20452;-67
2020/12/24 09:27:09;;;;;;;9.18;0.82;;;;;;;7.75;76.18;96301.34;4991525;28;20073;-68
2020/12/24 09:29:34;;;;;;;0.80;0.70;;;;;;;7.97;75.78;96316.22;4963797;28;20043;-67
2020/12/24 09:32:01;;;;;;;0.88;0.70;;;;;;;8.22;75.13;96317.47;4992775;28;20506;-68
2020/12/24 09:34:28;;;;;;;0.70;0.50;;;;;;;8.54;72.90;96305.63;4995980;28;20103;-66
2020/12/24 09:36:54;;;;;;;2.17;1.00;;;;;;;8.58;73.67;96306.47;4999265;28;20050;-67
2020/12/24 09:39:20;;;;;;;1.92;0.98;;;;;;;8.91;72.28;96322.28;4992057;28;20118;-66
2020/12/24 09:41:47;;;;;;;3.67;0.77;;;;;;;9.11;72.43;96325.72;4999952;28;20133;-67
2020/12/24 09:44:12;;;;;;;1.00;0.70;;;;;;;9.30;71.48;96327.56;4994185;28;20430;-65
2020/12/24 09:46:38;;;;;;;1.10;0.60;;;;;;;9.67;70.42;96318.72;4999815;28;20073;-68
2020/12/24 09:49:04;;;;;;;1.35;0.65;;;;;;;10.32;65.88;96319.56;4995121;28;20046;-65
2020/12/24 09:51:36;;;;;;;3.40;0.63;;;;;;;10.32;65.51;96320.34;4993250;28;20064;-67
2020/12/24 09:54:05;;;;;;;1.63;0.70;;;;;;;9.87;68.60;96318.59;4998483;28;20075;-65
2020/12/24 09:56:31;;;;;;;2.15;0.50;;;;;;;9.16;69.85;96298.09;5014889;28;20049;-67
2020/12/24 09:58:56;;;;;;;1.48;0.60;;;;;;;9.05;70.68;96318.19;5006539;28;20136;-69
2020/12/24 10:01:22;;;;;;;1.92;1.00;;;;;;;8.52;71.12;96300.53;4995775;28;20410;-66
2020/12/24 10:03:48;;;;;;;7.97;2.65;;;;;;;8.39;71.17;96304.53;5000446;28;20053;-64
2020/12/24 10:06:13;;;;;;;1.80;0.70;;;;;;;8.26;71.38;96309.38;4990487;28;20321;-65
2020/12/24 10:08:39;;;;;;;1.58;0.60;;;;;;;8.45;70.28;96297.66;4999978;28;20066;-66
2020/12/24 10:11:04;;;;;;;1.58;0.63;;;;;;;8.30;71.02;96304.78;4995584;28;20046;-63
2020/12/24 10:13:30;;;;;;;2.10;1.10;;;;;;;8.41;71.70;96304.97;4994363;28;20140;-64
2020/12/24 10:15:55;;;;;;;2.33;0.80;;;;;;;8.59;70.17;96305.34;4995336;28;20048;-66
2020/12/24 10:18:21;;;;;;;1.70;0.60;;;;;;;8.80;67.81;96299.44;4992081;28;20053;-66
2020/12/24 10:20:47;;;;;;;1.92;0.80;;;;;;;9.02;66.61;96299.78;4995420;28;20176;-65
2020/12/24 10:23:12;;;;;;;4.60;0.60;;;;;;;9.29;66.42;96295.94;4999038;28;20058;-65
2020/12/24 10:25:39;;;;;;;1.75;0.70;;;;;;;9.45;64.76;96281.28;5009985;28;20049;-66
2020/12/24 10:28:05;;;;;;;2.95;1.48;;;;;;;9.61;63.96;96286.59;4995534;28;20069;-64
2020/12/24 10:30:30;;;;;;;1.70;0.40;;;;;;;9.88;61.17;96290.06;4998915;28;20108;-65
2020/12/24 10:32:56;;;;;;;0.93;0.50;;;;;;;9.90;61.64;96282.28;4997172;28;20052;-67
2020/12/24 10:35:21;;;;;;;4.45;1.08;;;;;;;9.87;61.79;96285.78;4992025;28;20860;-67
2020/12/24 10:37:46;;;;;;;4.57;0.80;;;;;;;9.35;62.80;96263.59;4997965;28;20419;-66
2020/12/24 10:40:12;;;;;;;0.73;0.50;;;;;;;9.29;62.59;96267.78;5015620;28;20045;-66
2020/12/24 10:42:40;;;;;;;2.95;0.70;;;;;;;9.14;63.62;96275.78;5007680;28;20527;-67
2020/12/24 10:45:06;;;;;;;5.15;0.90;;;;;;;8.90;63.81;96262.53;4999947;28;20442;-66
2020/12/24 10:47:31;;;;;;;3.88;1.02;;;;;;;8.88;63.89;96281.25;4997476;28;20088;-67
2020/12/24 10:49:56;;;;;;;4.25;0.50;;;;;;;8.77;63.97;96268.19;4996496;28;20092;-68
2020/12/24 10:52:22;;;;;;;1.95;0.70;;;;;;;8.63;65.23;96265.22;4991393;28;20262;-66
2020/12/24 10:54:48;;;;;;;3.22;0.82;;;;;;;8.68;64.80;96278.56;4998371;28;20045;-66
2020/12/24 10:57:13;;;;;;;3.33;1.17;;;;;;;8.73;64.77;96277.47;4990448;28;20042;-66
2020/12/24 10:59:39;;;;;;;5.63;2.15;;;;;;;8.83;64.60;96274.13;4996189;28;20056;-66
2020/12/24 11:02:04;;;;;;;2.30;0.70;;;;;;;8.74;65.50;96274.38;4992522;28;20432;-63
2020/12/24 11:04:30;;;;;;;3.88;0.80;;;;;;;8.73;65.02;96275.53;4995701;28;20050;-64
2020/12/24 11:06:56;;;;;;;1.20;0.52;;;;;;;8.41;65.45;96264.81;4993121;28;20041;-66
2020/12/24 11:09:21;;;;;;;2.65;0.80;;;;;;;8.54;65.64;96256.50;4989793;28;20060;-66
2020/12/24 11:11:47;;;;;;;2.35;0.65;;;;;;;8.42;65.77;96252.78;4998682;28;20046;-68
2020/12/24 11:14:12;;;;;;;1.20;0.60;;;;;;;8.39;65.76;96260.88;4993229;28;20040;-67
2020/12/24 11:16:38;;;;;;;1.08;0.70;;;;;;;8.43;65.82;96237.22;4993886;28;20049;-66
2020/12/24 11:19:04;;;;;;;2.45;1.00;;;;;;;8.40;65.27;96235.16;4994850;28;20050;-64
2020/12/24 11:21:31;;;;;;;0.95;0.63;;;;;;;8.46;66.27;96241.13;4994699;28;20125;-65
2020/12/24 11:23:57;;;;;;;3.42;1.30;;;;;;;8.39;66.48;96228.94;4996960;28;20100;-66
2020/12/24 11:26:24;;;;;;;4.00;0.80;;;;;;;8.42;66.58;96241.84;4989561;28;20829;-67
2020/12/24 11:28:50;;;;;;;3.28;0.95;;;;;;;8.35;66.63;96240.91;4995406;28;20430;-64
2020/12/24 11:31:28;;;;;;;1.98;0.70;;;;;;;8.25;66.38;96236.88;4988712;28;20045;-67
2020/12/24 11:33:54;;;;;;;1.15;0.60;;;;;;;8.19;65.06;96241.03;4996365;28;20046;-66
2020/12/24 11:36:20;;;;;;;4.00;0.70;;;;;;;8.08;66.33;96235.38;4992435;28;20050;-66
2020/12/24 11:38:46;;;;;;;1.65;0.68;;;;;;;8.06;66.86;96231.44;4997940;28;20049;-68
2020/12/24 11:41:16;;;;;;;2.78;0.60;;;;;;;8.01;66.82;96241.50;4991744;28;20372;-67
2020/12/24 11:43:43;;;;;;;3.83;0.95;;;;;;;8.00;66.85;96237.19;4996652;28;20053;-66